createdAt,value
2023-03-29T00:00:25.528Z,7.30
2023-03-29T00:05:25.451Z,9.80
2023-03-29T00:10:25.389Z,6.30
2023-03-29T00:15:25.331Z,12.50
2023-03-29T00:20:25.265Z,8.00
2023-03-29T00:25:25.183Z,6.20
2023-03-29T00:30:25.138Z,7.70
2023-03-29T00:35:25.090Z,6.50
2023-03-29T00:40:25.015Z,7.00
2023-03-29T00:45:24.927Z,7.00
2023-03-29T00:50:24.868Z,6.70
2023-03-29T00:55:24.815Z,7.50
2023-03-29T01:00:24.754Z,9.60
2023-03-29T01:05:24.672Z,8.90
2023-03-29T01:10:24.622Z,8.50
2023-03-29T01:15:24.541Z,7.30
2023-03-29T01:20:24.476Z,8.80
2023-03-29T01:25:24.409Z,7.80
2023-03-29T01:30:24.350Z,6.10
2023-03-29T01:35:24.287Z,8.80
2023-03-29T01:40:24.240Z,9.00
2023-03-29T01:45:24.154Z,8.00
2023-03-29T01:50:24.088Z,9.30
2023-03-29T01:55:24.029Z,6.80
2023-03-29T02:00:23.977Z,9.10
2023-03-29T02:05:23.900Z,8.10
2023-03-29T02:10:23.828Z,7.40
2023-03-29T02:15:23.770Z,8.90
2023-03-29T02:20:23.697Z,11.30
2023-03-29T02:25:23.631Z,10.40
2023-03-29T02:30:23.579Z,8.60
2023-03-29T02:35:23.498Z,8.90
2023-03-29T02:40:23.441Z,9.10
2023-03-29T02:45:23.380Z,8.80
2023-03-29T02:50:23.333Z,11.50
2023-03-29T02:55:23.246Z,7.30
2023-03-29T03:00:23.240Z,8.50
2023-03-29T03:05:23.114Z,9.00
2023-03-29T03:10:23.055Z,8.30
2023-03-29T03:15:22.993Z,9.40
2023-03-29T03:20:22.919Z,6.30
2023-03-29T03:25:22.844Z,7.70
2023-03-29T03:30:22.793Z,8.10
2023-03-29T03:35:22.733Z,7.70
2023-03-29T03:40:22.678Z,9.00
2023-03-29T03:45:22.598Z,10.50
2023-03-29T03:50:22.533Z,10.20
2023-03-29T03:55:22.451Z,9.80
2023-03-29T04:00:22.396Z,10.20
2023-03-29T04:05:22.324Z,8.70
2023-03-29T04:10:22.263Z,9.10
2023-03-29T04:15:22.212Z,8.80
2023-03-29T04:20:22.132Z,8.30
2023-03-29T04:25:22.063Z,10.90
2023-03-29T04:30:22.016Z,10.80
2023-03-29T04:35:21.942Z,7.80
2023-03-29T04:40:21.884Z,11.90
2023-03-29T04:45:21.886Z,10.00
2023-03-29T04:50:21.753Z,10.30
2023-03-29T04:55:21.678Z,10.60
2023-03-29T05:00:21.618Z,8.90
2023-03-29T05:05:21.542Z,9.50
2023-03-29T05:10:21.485Z,11.20
2023-03-29T05:15:21.408Z,8.90
2023-03-29T05:20:21.343Z,10.00
2023-03-29T05:25:21.278Z,9.60
2023-03-29T05:30:21.218Z,10.10
2023-03-29T05:35:21.150Z,9.40
2023-03-29T05:40:21.081Z,10.30
2023-03-29T05:45:21.018Z,11.20
2023-03-29T05:50:20.953Z,10.50
2023-03-29T05:55:20.890Z,9.70
2023-03-29T06:00:20.818Z,9.40
2023-03-29T06:05:20.750Z,11.40
2023-03-29T06:10:20.690Z,9.50
2023-03-29T06:15:20.622Z,11.20
2023-03-29T06:20:20.571Z,9.30
2023-03-29T06:25:20.485Z,9.60
2023-03-29T06:30:20.427Z,12.20
2023-03-29T06:35:20.363Z,11.90
2023-03-29T06:40:20.300Z,8.60
2023-03-29T06:45:22.426Z,10.60
2023-03-29T06:50:20.188Z,9.40
2023-03-29T06:55:20.089Z,9.80
2023-03-29T07:00:20.037Z,12.50
2023-03-29T07:05:19.966Z,10.40
2023-03-29T07:10:19.910Z,7.90
2023-03-29T07:15:19.818Z,10.00
2023-03-29T07:20:19.789Z,9.40
2023-03-29T07:25:19.683Z,8.90
2023-03-29T07:30:19.629Z,10.20
2023-03-29T07:35:19.556Z,10.60
2023-03-29T07:40:19.499Z,8.40
2023-03-29T07:45:19.423Z,7.40
2023-03-29T07:50:20.349Z,9.70
2023-03-29T07:55:19.290Z,8.80
2023-03-29T08:00:19.350Z,7.10
2023-03-29T08:05:29.184Z,9.00
2023-03-29T08:10:20.116Z,9.80
2023-03-29T08:15:19.056Z,8.60
2023-03-29T08:20:18.963Z,7.10
2023-03-29T08:25:18.921Z,8.00
2023-03-29T08:30:18.871Z,9.70
2023-03-29T08:35:18.782Z,7.10
2023-03-29T08:40:18.702Z,10.20
2023-03-29T08:45:18.643Z,9.30
2023-03-29T08:50:18.568Z,9.20
2023-03-29T08:55:18.491Z,7.00
2023-03-29T09:00:18.637Z,6.60
2023-03-29T09:05:18.391Z,9.60
2023-03-29T09:10:18.378Z,8.00
2023-03-29T09:15:18.228Z,8.60
2023-03-29T09:20:18.288Z,9.00
2023-03-29T09:25:18.089Z,7.40
2023-03-29T09:30:18.076Z,9.80
2023-03-29T09:35:17.965Z,9.50
2023-03-29T09:40:17.937Z,8.80
2023-03-29T09:45:17.831Z,8.00
2023-03-29T09:50:30.064Z,7.60
2023-03-29T09:55:18.703Z,9.40
2023-03-29T10:00:17.654Z,8.00
2023-03-29T10:05:17.556Z,7.60
2023-03-29T10:10:17.509Z,8.40
2023-03-29T10:15:28.767Z,9.30
2023-03-29T10:20:18.376Z,7.00
2023-03-29T10:25:17.291Z,6.20
2023-03-29T10:30:17.236Z,6.10
2023-03-29T10:35:17.179Z,7.00
2023-03-29T10:40:17.103Z,7.20
2023-03-29T10:45:17.030Z,5.00
2023-03-29T10:50:16.962Z,6.00
2023-03-29T10:55:16.895Z,5.30
2023-03-29T11:00:16.836Z,5.50
2023-03-29T11:05:16.783Z,5.90
2023-03-29T11:10:16.693Z,6.70
2023-03-29T11:15:16.643Z,7.00
2023-03-29T11:20:16.596Z,8.00
2023-03-29T11:25:16.491Z,9.20
2023-03-29T11:30:16.434Z,7.30
2023-03-29T11:35:16.360Z,11.40
2023-03-29T11:40:16.308Z,8.60
2023-03-29T11:45:16.223Z,8.50
2023-03-29T11:50:16.169Z,9.50
2023-03-29T11:55:16.099Z,10.00
2023-03-29T12:00:16.019Z,10.50
2023-03-29T12:05:15.968Z,9.00
2023-03-29T12:10:15.890Z,9.20
2023-03-29T12:15:15.836Z,9.30
2023-03-29T12:20:15.775Z,10.80
2023-03-29T12:25:17.789Z,10.40
2023-03-29T12:30:15.635Z,11.60
2023-03-29T12:35:15.560Z,10.90
2023-03-29T12:40:15.560Z,13.10
2023-03-29T12:45:15.445Z,13.30
2023-03-29T12:50:15.371Z,14.60
2023-03-29T12:55:15.301Z,13.80
2023-03-29T13:00:15.242Z,14.90
2023-03-29T13:05:15.251Z,14.20
2023-03-29T13:10:15.119Z,13.40
2023-03-29T13:15:15.044Z,13.20
2023-03-29T13:20:14.983Z,13.40
2023-03-29T13:25:14.923Z,14.60
2023-03-29T13:30:14.867Z,14.80
2023-03-29T13:35:14.777Z,16.60
2023-03-29T13:40:14.716Z,15.70
2023-03-29T13:45:14.700Z,15.10
2023-03-29T13:50:14.580Z,17.10
2023-03-29T13:55:14.515Z,16.80
2023-03-29T14:00:14.456Z,17.40
2023-03-29T14:05:14.392Z,18.10
2023-03-29T14:10:14.330Z,16.60
2023-03-29T14:15:14.264Z,16.60
2023-03-29T14:20:14.361Z,15.60
2023-03-29T14:25:14.117Z,15.20
2023-03-29T14:30:14.057Z,16.40
2023-03-29T14:35:13.995Z,16.40
2023-03-29T14:40:13.927Z,16.70
2023-03-29T14:45:13.858Z,13.90
2023-03-29T14:50:13.799Z,15.90
2023-03-29T14:55:13.724Z,14.10
2023-03-29T15:00:13.673Z,15.90
2023-03-29T15:05:13.599Z,13.30
2023-03-29T15:10:13.530Z,12.30
2023-03-29T15:15:13.470Z,14.00
2023-03-29T15:20:13.404Z,14.50
2023-03-29T15:25:13.332Z,11.90
2023-03-29T15:30:13.267Z,13.70
2023-03-29T15:35:13.194Z,11.90
2023-03-29T15:40:15.078Z,12.60
2023-03-29T15:45:13.063Z,11.90
2023-03-29T15:50:13.033Z,9.00
2023-03-29T15:55:12.947Z,11.80
2023-03-29T16:00:12.863Z,10.90
2023-03-29T16:05:12.797Z,11.30
2023-03-29T16:10:12.729Z,9.90
2023-03-29T16:15:13.176Z,11.40
2023-03-29T16:20:12.596Z,10.20
2023-03-29T16:25:12.521Z,10.10
2023-03-29T16:30:12.461Z,9.10
2023-03-29T16:35:12.394Z,15.30
2023-03-29T16:40:12.319Z,13.80
2023-03-29T16:45:12.248Z,13.30
2023-03-29T16:50:12.211Z,16.20
2023-03-29T16:55:12.172Z,14.60
2023-03-29T17:00:12.108Z,15.00
2023-03-29T17:05:12.004Z,15.50
2023-03-29T17:10:11.938Z,16.00
2023-03-29T17:15:11.865Z,18.30
2023-03-29T17:20:11.814Z,17.20
2023-03-29T17:25:11.705Z,16.90
2023-03-29T17:30:11.653Z,17.80
2023-03-29T17:35:11.591Z,19.50
2023-03-29T17:40:11.520Z,17.30
2023-03-29T17:45:11.468Z,20.40
2023-03-29T17:50:11.475Z,17.50
2023-03-29T17:55:11.331Z,16.60
2023-03-29T18:00:11.249Z,20.30
2023-03-29T18:05:11.169Z,18.60
2023-03-29T18:10:11.156Z,15.70
2023-03-29T18:15:11.035Z,18.20
2023-03-29T18:20:10.987Z,15.70
2023-03-29T18:25:10.953Z,17.80
2023-03-29T18:30:10.856Z,14.10
2023-03-29T18:35:10.780Z,16.40
2023-03-29T18:40:10.732Z,16.60
2023-03-29T18:45:10.649Z,16.40
2023-03-29T18:50:10.583Z,16.20
2023-03-29T18:55:10.586Z,14.90
2023-03-29T19:00:10.453Z,16.30
2023-03-29T19:05:10.391Z,16.70
2023-03-29T19:10:10.348Z,15.10
2023-03-29T19:15:10.273Z,13.60
2023-03-29T19:20:10.218Z,14.60
2023-03-29T19:25:10.159Z,16.00
2023-03-29T19:30:10.070Z,15.20
2023-03-29T19:35:09.997Z,16.20
2023-03-29T19:40:09.928Z,14.20
2023-03-29T19:45:09.897Z,14.20
2023-03-29T19:50:09.818Z,16.30
2023-03-29T19:55:09.735Z,13.90
2023-03-29T20:00:09.760Z,13.30
2023-03-29T20:05:09.602Z,14.80
2023-03-29T20:10:09.530Z,13.40
2023-03-29T20:15:09.457Z,16.60
2023-03-29T20:20:09.412Z,14.60
2023-03-29T20:25:09.363Z,15.70
2023-03-29T20:30:09.282Z,15.20
2023-03-29T20:35:09.248Z,15.70
2023-03-29T20:40:09.170Z,13.50
2023-03-29T20:45:09.108Z,14.30
2023-03-29T20:50:09.018Z,13.60
2023-03-29T20:55:08.942Z,15.20
2023-03-29T21:00:08.880Z,13.80
2023-03-29T21:05:08.830Z,13.50
2023-03-29T21:10:08.747Z,14.30
2023-03-29T21:15:08.686Z,15.10
2023-03-29T21:20:08.610Z,15.40
2023-03-29T21:25:08.558Z,15.50
2023-03-29T21:30:08.485Z,14.30
2023-03-29T21:35:08.425Z,12.30
2023-03-29T21:40:08.354Z,14.80
2023-03-29T21:45:08.309Z,13.70
2023-03-29T21:50:08.224Z,15.20
2023-03-29T21:55:08.158Z,14.50
2023-03-29T22:00:08.115Z,13.10
2023-03-29T22:05:08.033Z,13.50
2023-03-29T22:10:07.984Z,13.40
2023-03-29T22:15:07.900Z,13.80
2023-03-29T22:20:07.830Z,11.80
2023-03-29T22:25:07.776Z,12.80
2023-03-29T22:30:07.699Z,15.00
2023-03-29T22:35:07.634Z,13.80
2023-03-29T22:40:07.558Z,11.30
2023-03-29T22:45:07.518Z,14.50
2023-03-29T22:50:07.436Z,11.70
2023-03-29T22:55:07.386Z,12.50
2023-03-29T23:00:07.296Z,13.60
2023-03-29T23:05:07.229Z,11.50
2023-03-29T23:10:07.154Z,12.10
2023-03-29T23:15:07.091Z,12.70
2023-03-29T23:20:07.122Z,10.90
2023-03-29T23:25:06.963Z,12.30
2023-03-29T23:30:06.882Z,10.60
2023-03-29T23:35:06.844Z,11.90
2023-03-29T23:40:06.770Z,12.20
2023-03-29T23:45:06.687Z,10.90
2023-03-29T23:50:06.614Z,10.80
2023-03-29T23:55:06.558Z,13.20
